createdAt,value
2023-03-16T00:02:26.397Z,6.63
2023-03-16T00:04:55.491Z,6.65
2023-03-16T00:07:23.240Z,6.60
2023-03-16T00:09:50.960Z,6.73
2023-03-16T00:12:20.224Z,6.82
2023-03-16T00:14:49.559Z,6.84
2023-03-16T00:17:19.918Z,6.78
2023-03-16T00:19:54.914Z,6.83
2023-03-16T00:22:24.310Z,6.88
2023-03-16T00:24:52.613Z,6.76
2023-03-16T00:27:22.693Z,6.77
2023-03-16T00:29:55.522Z,6.85
2023-03-16T00:32:25.576Z,6.95
2023-03-16T00:34:54.804Z,6.85
2023-03-16T00:37:23.621Z,6.82
2023-03-16T00:39:51.639Z,6.90
2023-03-16T00:42:20.928Z,6.85
2023-03-16T00:44:48.631Z,6.96
2023-03-16T00:47:16.304Z,6.90
2023-03-16T00:49:45.560Z,6.88
2023-03-16T00:52:15.660Z,6.87
2023-03-16T00:54:46.892Z,6.75
2023-03-16T00:57:18.883Z,6.75
2023-03-16T00:59:47.164Z,6.82
2023-03-16T01:02:16.071Z,6.70
2023-03-16T01:04:44.810Z,6.71
2023-03-16T01:07:15.583Z,6.52
2023-03-16T01:09:43.926Z,6.65
2023-03-16T01:12:13.533Z,6.59
2023-03-16T01:14:41.650Z,6.53
2023-03-16T01:17:10.358Z,6.38
2023-03-16T01:19:38.810Z,6.55
2023-03-16T01:22:07.615Z,6.50
2023-03-16T01:24:37.103Z,6.27
2023-03-16T01:27:05.469Z,6.38
2023-03-16T01:29:33.393Z,6.32
2023-03-16T01:32:01.414Z,6.27
2023-03-16T01:34:29.240Z,6.27
2023-03-16T01:36:57.463Z,6.25
2023-03-16T01:39:25.135Z,6.32
2023-03-16T01:41:54.223Z,6.23
2023-03-16T01:44:24.440Z,6.19
2023-03-16T01:46:52.143Z,6.15
2023-03-16T01:49:21.518Z,6.20
2023-03-16T01:51:51.914Z,6.30
2023-03-16T01:54:25.152Z,6.39
2023-03-16T01:57:00.703Z,6.41
2023-03-16T01:59:31.514Z,6.22
2023-03-16T02:01:59.499Z,6.13
2023-03-16T02:04:37.443Z,6.32
2023-03-16T02:07:06.700Z,6.24
2023-03-16T02:09:34.896Z,6.24
2023-03-16T02:12:04.102Z,6.23
2023-03-16T02:14:31.891Z,6.25
2023-03-16T02:16:59.572Z,6.28
2023-03-16T02:19:36.242Z,6.36
2023-03-16T02:22:06.368Z,6.30
2023-03-16T02:24:34.183Z,6.54
2023-03-16T02:27:05.943Z,6.47
2023-03-16T02:29:57.617Z,6.34
2023-03-16T02:32:27.629Z,6.24
2023-03-16T02:34:56.179Z,6.29
2023-03-16T02:37:23.902Z,6.45
2023-03-16T02:39:51.516Z,6.52
2023-03-16T02:42:22.112Z,6.56
2023-03-16T02:44:52.044Z,6.42
2023-03-16T02:47:28.443Z,6.46
2023-03-16T02:49:56.124Z,6.46
2023-03-16T02:52:23.859Z,6.59
2023-03-16T02:54:51.513Z,6.79
2023-03-16T02:57:19.540Z,6.65
2023-03-16T02:59:47.214Z,6.55
2023-03-16T03:02:14.868Z,6.68
2023-03-16T03:04:46.304Z,6.64
2023-03-16T03:07:14.370Z,6.86
2023-03-16T03:09:43.137Z,6.74
2023-03-16T03:12:11.582Z,6.79
2023-03-16T03:14:39.281Z,6.70
2023-03-16T03:17:07.384Z,6.70
2023-03-16T03:19:35.120Z,6.76
2023-03-16T03:22:06.389Z,6.61
2023-03-16T03:24:35.432Z,6.62
2023-03-16T03:27:05.805Z,6.56
2023-03-16T03:29:35.230Z,6.51
2023-03-16T03:32:03.290Z,6.62
2023-03-16T03:34:31.660Z,6.61
2023-03-16T03:36:59.696Z,6.72
2023-03-16T03:39:28.685Z,6.63
2023-03-16T03:41:56.388Z,6.52
2023-03-16T03:44:24.324Z,6.74
2023-03-16T03:46:52.634Z,6.67
2023-03-16T03:49:20.686Z,6.70
2023-03-16T03:51:48.496Z,6.69
2023-03-16T03:54:16.194Z,6.73
2023-03-16T03:56:45.186Z,6.89
2023-03-16T03:59:12.926Z,6.77
2023-03-16T04:01:40.614Z,6.90
2023-03-16T04:04:08.312Z,6.72
2023-03-16T04:06:36.025Z,6.82
2023-03-16T04:09:04.086Z,6.93
2023-03-16T04:11:31.779Z,6.95
2023-03-16T04:14:00.909Z,6.91
2023-03-16T04:16:28.657Z,6.89
2023-03-16T04:18:56.412Z,6.94
2023-03-16T04:21:24.295Z,7.00
2023-03-16T04:23:54.296Z,6.92
2023-03-16T04:26:22.348Z,6.86
2023-03-16T04:28:50.064Z,6.96
2023-03-16T04:31:19.213Z,6.83
2023-03-16T04:33:47.080Z,6.80
2023-03-16T04:36:14.971Z,6.93
2023-03-16T04:38:43.095Z,6.96
2023-03-16T04:41:11.319Z,7.08
2023-03-16T04:43:38.973Z,7.03
2023-03-16T04:46:07.989Z,6.84
2023-03-16T04:48:37.514Z,6.83
2023-03-16T04:51:06.591Z,6.97
2023-03-16T04:53:34.348Z,6.95
2023-03-16T04:56:02.303Z,6.65
2023-03-16T04:58:29.947Z,6.78
2023-03-16T05:00:57.634Z,6.83
2023-03-16T05:03:25.603Z,6.93
2023-03-16T05:05:54.728Z,6.81
2023-03-16T05:08:22.455Z,7.08
2023-03-16T05:10:50.175Z,6.94
2023-03-16T05:13:17.885Z,6.83
2023-03-16T05:15:45.604Z,7.04
2023-03-16T05:18:13.270Z,6.96
2023-03-16T05:20:41.240Z,6.98
2023-03-16T05:23:11.794Z,6.96
2023-03-16T05:25:40.428Z,6.95
2023-03-16T05:28:08.366Z,6.91
2023-03-16T05:30:36.905Z,7.02
2023-03-16T05:33:04.740Z,6.89
2023-03-16T05:35:32.534Z,7.03
2023-03-16T05:38:00.241Z,7.00
2023-03-16T05:40:29.650Z,6.97
2023-03-16T05:43:00.308Z,6.88
2023-03-16T05:45:28.886Z,7.04
2023-03-16T05:47:56.667Z,7.03
2023-03-16T05:50:24.872Z,7.06
2023-03-16T05:52:52.573Z,7.19
2023-03-16T05:55:20.359Z,6.89
2023-03-16T05:57:49.358Z,7.15
2023-03-16T06:00:19.119Z,7.11
2023-03-16T06:02:48.322Z,7.26
2023-03-16T06:05:17.165Z,7.10
2023-03-16T06:07:45.064Z,7.05
2023-03-16T06:10:13.415Z,6.97
2023-03-16T06:12:41.996Z,7.03
2023-03-16T06:15:12.230Z,7.16
2023-03-16T06:17:41.375Z,7.02
2023-03-16T06:20:11.443Z,7.22
2023-03-16T06:22:39.654Z,7.33
2023-03-16T06:25:08.343Z,7.31
2023-03-16T06:27:36.024Z,7.36
2023-03-16T06:30:03.956Z,7.44
2023-03-16T06:32:33.106Z,7.25
2023-03-16T06:35:02.233Z,7.30
2023-03-16T06:37:30.035Z,7.24
2023-03-16T06:39:57.813Z,7.37
2023-03-16T06:42:25.498Z,7.44
2023-03-16T06:44:53.362Z,7.56
2023-03-16T06:47:21.589Z,7.60
2023-03-16T06:49:51.851Z,7.74
2023-03-16T06:52:19.602Z,7.75
2023-03-16T06:54:47.303Z,7.79
2023-03-16T06:57:15.233Z,7.79
2023-03-16T06:59:42.931Z,8.01
2023-03-16T07:02:11.976Z,8.12
2023-03-16T07:04:39.819Z,8.23
2023-03-16T07:07:09.309Z,8.47
2023-03-16T07:09:39.598Z,8.23
2023-03-16T07:12:09.414Z,8.21
2023-03-16T07:14:37.472Z,8.26
2023-03-16T07:17:05.315Z,8.01
2023-03-16T07:19:33.191Z,7.88
2023-03-16T07:22:02.702Z,8.03
2023-03-16T07:24:32.726Z,8.26
2023-03-16T07:27:00.498Z,8.33
2023-03-16T07:29:28.232Z,8.71
2023-03-16T07:31:56.292Z,8.71
2023-03-16T07:34:24.048Z,8.73
2023-03-16T07:36:52.755Z,8.69
2023-03-16T07:39:21.549Z,8.91
2023-03-16T07:41:51.355Z,8.87
2023-03-16T07:44:19.032Z,8.85
2023-03-16T07:46:46.691Z,8.92
2023-03-16T07:49:14.450Z,9.32
2023-03-16T07:51:42.152Z,9.41
2023-03-16T07:54:09.897Z,9.43
2023-03-16T07:56:48.415Z,9.52
2023-03-16T07:59:20.775Z,9.58
2023-03-16T08:01:48.906Z,9.79
2023-03-16T08:04:16.645Z,9.94
2023-03-16T08:06:44.367Z,10.07
2023-03-16T08:09:12.216Z,10.03
2023-03-16T08:11:40.059Z,9.88
2023-03-16T08:14:07.780Z,9.82
2023-03-16T08:16:37.498Z,9.90
2023-03-16T08:19:05.365Z,9.87
2023-03-16T08:21:33.056Z,9.89
2023-03-16T08:24:01.700Z,10.27
2023-03-16T08:26:29.565Z,10.16
2023-03-16T08:28:58.783Z,10.43
2023-03-16T08:31:26.608Z,10.41
2023-03-16T08:33:56.063Z,10.05
2023-03-16T08:36:24.192Z,10.20
2023-03-16T08:39:05.923Z,10.09
2023-03-16T08:41:34.637Z,10.00
2023-03-16T08:44:03.288Z,10.12
2023-03-16T08:46:31.749Z,10.18
2023-03-16T08:49:01.187Z,10.18
2023-03-16T08:51:29.624Z,10.31
2023-03-16T08:53:57.304Z,10.83
2023-03-16T08:56:25.042Z,11.13
2023-03-16T08:58:53.060Z,11.04
2023-03-16T09:01:20.864Z,11.12
2023-03-16T09:03:48.680Z,11.10
2023-03-16T09:06:18.690Z,10.92
2023-03-16T09:08:47.780Z,10.75
2023-03-16T09:11:17.229Z,10.74
2023-03-16T09:13:46.005Z,10.76
2023-03-16T09:16:15.763Z,10.72
2023-03-16T09:18:43.935Z,10.53
2023-03-16T09:21:13.257Z,10.33
2023-03-16T09:23:43.108Z,10.66
2023-03-16T09:26:12.584Z,10.62
2023-03-16T09:28:42.163Z,10.27
2023-03-16T09:31:11.766Z,10.21
2023-03-16T09:33:39.953Z,10.21
2023-03-16T09:36:07.783Z,10.50
2023-03-16T09:38:35.699Z,10.37
2023-03-16T09:41:09.521Z,10.33
2023-03-16T09:43:47.153Z,10.27
2023-03-16T09:46:17.768Z,10.38
2023-03-16T09:48:45.583Z,10.16
2023-03-16T09:51:20.036Z,10.25
2023-03-16T09:53:48.265Z,10.28
2023-03-16T09:56:21.681Z,10.58
2023-03-16T09:58:49.328Z,10.58
2023-03-16T10:01:24.173Z,10.25
2023-03-16T10:04:06.646Z,10.09
2023-03-16T10:06:34.888Z,10.30
2023-03-16T10:09:08.400Z,10.13
2023-03-16T10:11:39.682Z,10.37
2023-03-16T10:14:17.614Z,10.51
2023-03-16T10:16:48.585Z,10.69
2023-03-16T10:19:19.451Z,10.76
2023-03-16T10:21:48.301Z,10.55
2023-03-16T10:24:25.330Z,10.45
2023-03-16T10:27:00.024Z,10.72
2023-03-16T10:29:29.257Z,10.92
2023-03-16T10:32:01.423Z,10.83
2023-03-16T10:34:30.608Z,10.34
2023-03-16T10:36:58.388Z,10.45
2023-03-16T10:39:26.504Z,10.56
2023-03-16T10:42:00.409Z,10.50
2023-03-16T10:44:29.910Z,10.73
2023-03-16T10:47:03.419Z,10.51
2023-03-16T10:49:39.414Z,10.74
2023-03-16T10:52:12.948Z,11.01
2023-03-16T10:54:41.663Z,11.10
2023-03-16T10:57:22.666Z,11.26
2023-03-16T10:59:52.147Z,11.38
2023-03-16T11:02:23.105Z,11.42
2023-03-16T11:04:50.959Z,11.59
2023-03-16T11:07:20.045Z,11.92
2023-03-16T11:09:48.313Z,11.71
2023-03-16T11:12:24.180Z,12.03
2023-03-16T11:14:51.937Z,11.82
2023-03-16T11:17:23.767Z,11.82
2023-03-16T11:19:54.509Z,11.74
2023-03-16T11:22:24.285Z,11.55
2023-03-16T11:24:55.564Z,11.64
2023-03-16T11:27:27.883Z,11.74
2023-03-16T11:30:05.669Z,11.77
2023-03-16T11:32:36.143Z,11.74
2023-03-16T11:35:08.828Z,11.99
2023-03-16T11:37:48.509Z,12.30
2023-03-16T11:40:26.580Z,11.99
2023-03-16T11:43:02.892Z,12.28
2023-03-16T11:45:35.317Z,12.22
2023-03-16T11:48:14.609Z,12.12
2023-03-16T11:50:52.697Z,12.10
2023-03-16T11:53:30.915Z,12.26
2023-03-16T11:56:06.552Z,12.55
2023-03-16T11:58:46.341Z,12.55
2023-03-16T12:01:19.677Z,12.39
2023-03-16T12:04:21.112Z,12.41
2023-03-16T12:07:00.947Z,12.25
2023-03-16T12:09:52.280Z,12.42
2023-03-16T12:12:30.686Z,12.42
2023-03-16T12:15:11.222Z,12.89
2023-03-16T12:17:39.199Z,13.20
2023-03-16T12:20:15.316Z,13.25
2023-03-16T12:22:45.077Z,13.25
2023-03-16T12:25:17.148Z,13.30
2023-03-16T12:27:45.000Z,13.08
2023-03-16T12:30:28.474Z,13.45
2023-03-16T12:33:02.145Z,13.64
2023-03-16T12:35:38.767Z,13.47
2023-03-16T12:38:24.191Z,13.42
2023-03-16T12:41:00.018Z,13.79
2023-03-16T12:43:37.013Z,14.03
2023-03-16T12:46:09.469Z,13.67
2023-03-16T12:48:39.813Z,13.58
2023-03-16T12:51:07.575Z,13.62
2023-03-16T12:53:46.877Z,13.96
2023-03-16T12:56:16.384Z,13.93
2023-03-16T12:58:45.621Z,14.11
2023-03-16T13:01:16.983Z,13.81
2023-03-16T13:03:45.494Z,13.65
2023-03-16T13:06:22.410Z,13.53
2023-03-16T13:08:53.991Z,13.27
2023-03-16T13:11:21.689Z,13.21
2023-03-16T13:13:52.571Z,13.35
2023-03-16T13:16:29.636Z,13.32
2023-03-16T13:18:57.978Z,13.31
2023-03-16T13:21:37.174Z,13.54
2023-03-16T13:24:22.941Z,13.64
2023-03-16T13:26:52.185Z,13.53
2023-03-16T13:29:25.847Z,13.53
2023-03-16T13:31:56.378Z,13.65
2023-03-16T13:34:27.565Z,14.22
2023-03-16T13:36:57.974Z,14.69
2023-03-16T13:39:28.432Z,14.91
2023-03-16T13:41:59.538Z,14.87
2023-03-16T13:44:28.362Z,15.05
2023-03-16T13:46:57.613Z,14.80
2023-03-16T13:49:25.379Z,14.54
2023-03-16T13:51:53.740Z,14.31
2023-03-16T13:54:26.151Z,14.22
2023-03-16T13:56:54.423Z,14.56
2023-03-16T13:59:23.111Z,14.54
2023-03-16T14:01:59.832Z,14.77
2023-03-16T14:04:30.095Z,14.90
2023-03-16T14:06:59.324Z,14.82
2023-03-16T14:09:28.751Z,14.63
2023-03-16T14:11:57.646Z,14.59
2023-03-16T14:14:31.949Z,14.78
2023-03-16T14:17:06.718Z,14.92
2023-03-16T14:19:42.498Z,14.63
2023-03-16T14:22:18.544Z,14.74
2023-03-16T14:24:47.996Z,15.30
2023-03-16T14:27:21.847Z,15.40
2023-03-16T14:29:55.719Z,15.09
2023-03-16T14:32:28.568Z,14.78
2023-03-16T14:35:13.924Z,14.82
2023-03-16T14:37:42.383Z,14.67
2023-03-16T14:40:24.354Z,14.90
2023-03-16T14:42:53.425Z,15.36
2023-03-16T14:45:22.094Z,15.55
2023-03-16T14:47:53.622Z,15.63
2023-03-16T14:50:25.156Z,15.71
2023-03-16T14:52:55.832Z,15.56
2023-03-16T14:55:24.820Z,15.24
2023-03-16T14:57:53.296Z,15.58
2023-03-16T15:00:22.875Z,15.41
2023-03-16T15:02:58.639Z,15.08
2023-03-16T15:05:36.626Z,14.94
2023-03-16T15:08:05.324Z,14.99
2023-03-16T15:10:34.394Z,15.18
2023-03-16T15:13:14.064Z,15.17
2023-03-16T15:15:42.924Z,15.30
2023-03-16T15:18:12.056Z,14.87
2023-03-16T15:20:42.079Z,14.74
2023-03-16T15:23:13.540Z,14.95
2023-03-16T15:25:42.160Z,14.82
2023-03-16T15:28:15.743Z,14.77
2023-03-16T15:30:44.619Z,14.61
2023-03-16T15:33:14.077Z,14.44
2023-03-16T15:35:42.626Z,14.47
2023-03-16T15:38:15.927Z,14.47
2023-03-16T15:40:45.641Z,14.41
2023-03-16T15:43:13.828Z,14.64
2023-03-16T15:45:41.739Z,14.74
2023-03-16T15:48:11.029Z,14.87
2023-03-16T15:50:41.909Z,14.73
2023-03-16T15:53:29.297Z,14.64
2023-03-16T15:56:02.901Z,15.03
2023-03-16T15:58:31.635Z,15.07
2023-03-16T16:01:00.584Z,14.94
2023-03-16T16:03:28.841Z,14.77
2023-03-16T16:05:58.175Z,14.82
2023-03-16T16:08:25.869Z,14.84
2023-03-16T16:10:53.844Z,14.69
2023-03-16T16:13:26.754Z,14.54
2023-03-16T16:15:57.675Z,14.65
2023-03-16T16:18:31.859Z,14.69
2023-03-16T16:21:02.924Z,14.58
2023-03-16T16:23:31.180Z,14.53
2023-03-16T16:26:01.374Z,14.20
2023-03-16T16:28:32.549Z,14.29
2023-03-16T16:31:01.932Z,14.41
2023-03-16T16:33:31.495Z,14.53
2023-03-16T16:36:01.994Z,14.48
2023-03-16T16:38:30.336Z,14.39
2023-03-16T16:40:59.000Z,14.08
2023-03-16T16:43:32.489Z,14.14
2023-03-16T16:46:00.902Z,13.85
2023-03-16T16:48:32.920Z,13.82
2023-03-16T16:51:02.334Z,13.72
2023-03-16T16:53:30.686Z,13.68
2023-03-16T16:55:58.506Z,13.71
2023-03-16T16:58:26.422Z,13.46
2023-03-16T17:00:56.317Z,13.53
2023-03-16T17:03:25.625Z,13.45
2023-03-16T17:05:53.904Z,13.42
2023-03-16T17:08:23.593Z,13.29
2023-03-16T17:10:52.312Z,13.38
2023-03-16T17:13:26.693Z,13.39
2023-03-16T17:15:54.978Z,13.23
2023-03-16T17:18:23.081Z,13.09
2023-03-16T17:20:52.250Z,13.04
2023-03-16T17:23:28.123Z,12.91
2023-03-16T17:25:56.494Z,12.74
2023-03-16T17:28:26.090Z,12.74
2023-03-16T17:30:53.859Z,12.70
2023-03-16T17:33:21.614Z,12.67
2023-03-16T17:35:49.538Z,12.69
2023-03-16T17:38:19.459Z,12.63
2023-03-16T17:40:48.716Z,12.55
2023-03-16T17:43:17.806Z,12.44
2023-03-16T17:45:46.715Z,12.30
2023-03-16T17:48:16.540Z,12.13
2023-03-16T17:50:46.095Z,12.16
2023-03-16T17:53:13.898Z,12.10
2023-03-16T17:55:42.236Z,12.12
2023-03-16T17:58:23.355Z,12.16
2023-03-16T18:00:51.021Z,12.01
2023-03-16T18:03:18.761Z,12.09
2023-03-16T18:05:46.760Z,12.15
2023-03-16T18:08:17.257Z,11.97
2023-03-16T18:10:45.554Z,11.94
2023-03-16T18:13:20.774Z,11.94
2023-03-16T18:15:49.258Z,11.95
2023-03-16T18:18:21.481Z,11.99
2023-03-16T18:20:50.763Z,11.94
2023-03-16T18:23:20.950Z,11.89
2023-03-16T18:25:50.030Z,11.93
2023-03-16T18:28:19.808Z,11.97
2023-03-16T18:30:49.006Z,12.01
2023-03-16T18:33:23.520Z,12.05
2023-03-16T18:35:51.764Z,11.93
2023-03-16T18:38:25.373Z,11.88
2023-03-16T18:40:53.159Z,11.81
2023-03-16T18:43:22.265Z,11.80
2023-03-16T18:45:50.628Z,11.72
2023-03-16T18:48:23.323Z,11.77
2023-03-16T18:50:51.388Z,11.70
2023-03-16T18:53:19.896Z,11.56
2023-03-16T18:55:47.984Z,11.64
2023-03-16T18:58:17.756Z,11.67
2023-03-16T19:00:51.635Z,11.66
2023-03-16T19:03:25.830Z,11.49
2023-03-16T19:05:54.259Z,11.44
2023-03-16T19:08:22.605Z,11.64
2023-03-16T19:10:52.872Z,11.50
2023-03-16T19:13:22.549Z,11.45
2023-03-16T19:15:53.094Z,11.39
2023-03-16T19:18:21.222Z,11.40
2023-03-16T19:20:50.410Z,11.31
2023-03-16T19:23:21.851Z,11.28
2023-03-16T19:25:49.927Z,11.12
2023-03-16T19:28:23.950Z,11.17
2023-03-16T19:30:53.034Z,11.08
2023-03-16T19:33:22.646Z,11.15
2023-03-16T19:35:52.185Z,11.19
2023-03-16T19:38:21.363Z,11.08
2023-03-16T19:40:50.647Z,11.09
2023-03-16T19:43:19.182Z,11.27
2023-03-16T19:45:47.993Z,11.22
2023-03-16T19:48:20.336Z,11.39
2023-03-16T19:50:49.185Z,11.38
2023-03-16T19:53:18.777Z,11.61
2023-03-16T19:55:48.026Z,11.61
2023-03-16T19:58:21.014Z,11.71
2023-03-16T20:00:49.214Z,11.57
2023-03-16T20:03:18.279Z,11.73
2023-03-16T20:05:45.931Z,11.48
2023-03-16T20:08:22.436Z,11.62
2023-03-16T20:10:51.006Z,11.58
2023-03-16T20:13:19.965Z,11.49
2023-03-16T20:15:47.690Z,11.37
2023-03-16T20:18:18.996Z,11.33
2023-03-16T20:20:47.503Z,11.49
2023-03-16T20:23:20.700Z,11.64
2023-03-16T20:25:49.228Z,11.36
2023-03-16T20:28:20.077Z,11.44
2023-03-16T20:30:48.769Z,11.74
2023-03-16T20:33:23.803Z,11.68
2023-03-16T20:35:53.408Z,11.79
2023-03-16T20:38:21.838Z,11.58
2023-03-16T20:40:53.119Z,11.72
2023-03-16T20:43:25.101Z,11.58
2023-03-16T20:45:54.301Z,11.75
2023-03-16T20:48:25.422Z,11.82
2023-03-16T20:50:53.380Z,11.66
2023-03-16T20:53:21.502Z,11.65
2023-03-16T20:55:49.362Z,11.83
2023-03-16T20:58:22.875Z,11.72
2023-03-16T21:00:51.700Z,11.76
2023-03-16T21:03:20.901Z,11.84
2023-03-16T21:05:50.815Z,11.82
2023-03-16T21:08:18.819Z,11.89
2023-03-16T21:10:48.372Z,11.73
2023-03-16T21:13:19.844Z,11.80
2023-03-16T21:15:50.015Z,11.90
2023-03-16T21:18:20.223Z,11.80
2023-03-16T21:20:50.765Z,11.98
2023-03-16T21:23:21.171Z,11.92
2023-03-16T21:25:50.944Z,11.89
2023-03-16T21:28:20.438Z,11.80
2023-03-16T21:30:49.574Z,11.82
2023-03-16T21:33:20.736Z,11.93
2023-03-16T21:35:50.047Z,11.88
2023-03-16T21:38:19.465Z,12.00
2023-03-16T21:40:48.137Z,11.94
2023-03-16T21:43:16.672Z,11.84
2023-03-16T21:45:45.370Z,11.93
2023-03-16T21:48:15.513Z,11.96
2023-03-16T21:50:44.112Z,11.89
2023-03-16T21:53:22.106Z,11.92
2023-03-16T21:55:50.481Z,11.97
2023-03-16T21:58:18.422Z,11.94
2023-03-16T22:00:47.311Z,11.77
2023-03-16T22:03:29.518Z,11.93
2023-03-16T22:06:01.454Z,11.85
2023-03-16T22:08:32.587Z,11.96
2023-03-16T22:11:00.850Z,11.88
2023-03-16T22:13:28.953Z,11.78
2023-03-16T22:15:58.769Z,11.70
2023-03-16T22:18:29.218Z,11.73
2023-03-16T22:20:58.404Z,11.71
2023-03-16T22:23:34.178Z,11.65
2023-03-16T22:26:02.160Z,11.44
2023-03-16T22:28:29.971Z,11.56
2023-03-16T22:30:58.649Z,11.56
2023-03-16T22:33:29.832Z,11.53
2023-03-16T22:35:59.482Z,11.38
2023-03-16T22:38:27.181Z,11.36
2023-03-16T22:40:56.235Z,11.51
2023-03-16T22:43:29.435Z,11.43
2023-03-16T22:45:57.308Z,11.20
2023-03-16T22:48:26.921Z,11.23
2023-03-16T22:50:55.456Z,11.30
2023-03-16T22:53:27.010Z,11.27
2023-03-16T22:55:57.124Z,11.16
2023-03-16T22:58:29.323Z,10.92
2023-03-16T23:00:57.020Z,11.00
2023-03-16T23:03:25.338Z,10.87
2023-03-16T23:05:53.348Z,10.75
2023-03-16T23:08:23.525Z,10.81
2023-03-16T23:10:52.456Z,10.76
2023-03-16T23:13:24.069Z,10.72
2023-03-16T23:15:53.487Z,10.62
2023-03-16T23:18:23.496Z,10.70
2023-03-16T23:20:52.547Z,10.66
2023-03-16T23:23:20.520Z,10.65
2023-03-16T23:25:49.029Z,10.58
2023-03-16T23:28:18.393Z,10.55
2023-03-16T23:30:49.232Z,10.52
2023-03-16T23:33:17.562Z,10.67
2023-03-16T23:35:46.624Z,10.62
2023-03-16T23:38:14.574Z,10.69
2023-03-16T23:40:42.248Z,10.80
2023-03-16T23:43:10.097Z,10.50
2023-03-16T23:45:40.307Z,10.62
2023-03-16T23:48:13.492Z,10.72
2023-03-16T23:50:43.120Z,10.70
2023-03-16T23:53:16.082Z,10.92
2023-03-16T23:55:44.348Z,10.95
2023-03-16T23:58:12.655Z,11.03
